createdAt,value
2022-07-26T00:00:13.485Z,69.06
2022-07-26T00:01:13.698Z,69.56
2022-07-26T00:02:18.267Z,69.76
2022-07-26T00:03:13.974Z,69.76
2022-07-26T00:04:14.136Z,69.66
2022-07-26T00:05:14.296Z,70.15
2022-07-26T00:06:14.456Z,70.15
2022-07-26T00:07:14.616Z,70.26
2022-07-26T00:08:14.779Z,69.76
2022-07-26T00:09:14.938Z,70.26
2022-07-26T00:10:15.105Z,69.56
2022-07-26T00:11:15.257Z,69.16
2022-07-26T00:12:15.460Z,68.76
2022-07-26T00:13:15.636Z,69.06
2022-07-26T00:14:15.846Z,69.46
2022-07-26T00:15:15.997Z,70.15
2022-07-26T00:16:16.288Z,69.96
2022-07-26T00:17:16.367Z,69.66
2022-07-26T00:18:16.529Z,69.46
2022-07-26T00:19:16.696Z,69.26
2022-07-26T00:20:16.858Z,69.46
2022-07-26T00:21:17.020Z,69.66
2022-07-26T00:22:17.178Z,69.76
2022-07-26T00:23:17.327Z,70.36
2022-07-26T00:24:17.538Z,70.36
2022-07-26T00:25:17.696Z,69.76
2022-07-26T00:26:17.887Z,70.26
2022-07-26T00:27:18.047Z,70.36
2022-07-26T00:28:18.209Z,70.36
2022-07-26T00:29:18.386Z,69.66
2022-07-26T00:30:18.558Z,69.36
2022-07-26T00:31:18.830Z,69.46
2022-07-26T00:32:18.898Z,69.66
2022-07-26T00:33:19.061Z,69.56
2022-07-26T00:34:19.236Z,69.66
2022-07-26T00:35:19.390Z,69.76
2022-07-26T00:36:19.548Z,69.76
2022-07-26T00:37:20.473Z,69.16
2022-07-26T00:38:19.870Z,69.96
2022-07-26T00:39:20.040Z,69.56
2022-07-26T00:40:20.206Z,70.26
2022-07-26T00:41:20.359Z,69.85
2022-07-26T00:42:20.558Z,69.76
2022-07-26T00:43:20.709Z,69.66
2022-07-26T00:44:20.921Z,69.16
2022-07-26T00:45:21.079Z,69.16
2022-07-26T00:46:21.416Z,70.26
2022-07-26T00:47:21.413Z,70.06
2022-07-26T00:48:21.625Z,69.96
2022-07-26T00:49:21.879Z,69.56
2022-07-26T00:50:21.940Z,69.96
2022-07-26T00:51:22.100Z,69.36
2022-07-26T00:52:22.272Z,69.36
2022-07-26T00:53:22.431Z,69.56
2022-07-26T00:54:22.611Z,69.46
2022-07-26T00:55:22.770Z,69.06
2022-07-26T00:56:22.932Z,69.56
2022-07-26T00:57:23.091Z,70.15
2022-07-26T00:58:23.252Z,70.75
2022-07-26T00:59:23.422Z,70.49
2022-07-26T01:00:23.592Z,70.49
2022-07-26T01:01:23.828Z,70.09
2022-07-26T01:02:24.007Z,70.19
2022-07-26T01:03:24.084Z,70.98
2022-07-26T01:04:25.283Z,70.68
2022-07-26T01:05:24.434Z,71.09
2022-07-26T01:06:27.347Z,70.59
2022-07-26T01:07:24.763Z,70.49
2022-07-26T01:08:24.962Z,70.79
2022-07-26T01:09:25.140Z,70.59
2022-07-26T01:10:25.305Z,70.68
2022-07-26T01:11:25.453Z,70.68
2022-07-26T01:12:25.624Z,70.49
2022-07-26T01:13:25.773Z,70.89
2022-07-26T01:14:25.984Z,71.09
2022-07-26T01:15:26.142Z,71.19
2022-07-26T01:16:26.351Z,70.59
2022-07-26T01:17:26.494Z,70.68
2022-07-26T01:18:26.654Z,70.89
2022-07-26T01:19:26.824Z,70.98
2022-07-26T01:20:26.994Z,70.89
2022-07-26T01:21:27.155Z,70.68
2022-07-26T01:22:27.315Z,70.89
2022-07-26T01:23:27.474Z,70.98
2022-07-26T01:24:27.644Z,70.89
2022-07-26T01:25:27.804Z,70.49
2022-07-26T01:26:27.974Z,70.68
2022-07-26T01:27:33.552Z,70.72
2022-07-26T01:28:29.294Z,70.92
2022-07-26T01:29:36.128Z,70.72
2022-07-26T01:30:29.636Z,70.72
2022-07-26T01:31:28.863Z,71.22
2022-07-26T01:32:28.994Z,70.82
2022-07-26T01:33:29.145Z,70.82
2022-07-26T01:34:29.355Z,70.92
2022-07-26T01:35:29.513Z,70.62
2022-07-26T01:36:29.706Z,71.02
2022-07-26T01:37:29.865Z,70.92
2022-07-26T01:38:30.064Z,71.12
2022-07-26T01:39:30.229Z,71.12
2022-07-26T01:40:30.388Z,70.62
2022-07-26T01:41:38.169Z,71.22
2022-07-26T01:42:31.726Z,71.32
2022-07-26T01:43:30.907Z,71.32
2022-07-26T01:44:31.116Z,71.12
2022-07-26T01:45:31.319Z,70.92
2022-07-26T01:46:31.457Z,71.32
2022-07-26T01:47:31.617Z,71.22
2022-07-26T01:48:31.845Z,71.02
2022-07-26T01:49:31.946Z,71.02
2022-07-26T01:50:32.107Z,71.42
2022-07-26T01:51:32.267Z,70.92
2022-07-26T01:52:32.427Z,71.02
2022-07-26T01:53:32.586Z,71.22
2022-07-26T01:54:32.767Z,71.02
2022-07-26T01:55:32.921Z,71.02
2022-07-26T01:56:33.091Z,71.51
2022-07-26T01:57:33.257Z,71.62
2022-07-26T01:58:33.409Z,71.42
2022-07-26T01:59:33.577Z,71.22
2022-07-26T02:00:33.738Z,71.32
2022-07-26T02:01:38.353Z,71.12
2022-07-26T02:02:35.313Z,70.82
2022-07-26T02:03:34.256Z,71.12
2022-07-26T02:04:34.427Z,71.02
2022-07-26T02:05:34.591Z,70.62
2022-07-26T02:06:34.748Z,70.42
2022-07-26T02:07:34.909Z,70.22
2022-07-26T02:08:35.098Z,70.52
2022-07-26T02:09:39.541Z,71.02
2022-07-26T02:10:35.458Z,70.52
2022-07-26T02:11:35.619Z,70.82
2022-07-26T02:12:35.778Z,70.82
2022-07-26T02:13:35.939Z,70.62
2022-07-26T02:14:36.109Z,70.22
2022-07-26T02:15:36.290Z,70.26
2022-07-26T02:16:36.430Z,70.56
2022-07-26T02:17:36.589Z,70.16
2022-07-26T02:18:36.750Z,70.16
2022-07-26T02:19:36.931Z,70.65
2022-07-26T02:20:37.089Z,70.26
2022-07-26T02:21:37.250Z,70.26
2022-07-26T02:22:37.413Z,70.26
2022-07-26T02:23:41.281Z,70.16
2022-07-26T02:24:37.747Z,70.56
2022-07-26T02:25:37.902Z,70.26
2022-07-26T02:26:38.071Z,70.45
2022-07-26T02:27:38.222Z,70.45
2022-07-26T02:28:38.432Z,70.75
2022-07-26T02:29:38.606Z,71.05
2022-07-26T02:30:39.431Z,70.79
2022-07-26T02:31:38.954Z,70.59
2022-07-26T02:32:39.098Z,71.09
2022-07-26T02:33:39.251Z,70.89
2022-07-26T02:34:39.431Z,70.99
2022-07-26T02:35:39.592Z,70.89
2022-07-26T02:36:39.760Z,70.79
2022-07-26T02:37:43.534Z,71.19
2022-07-26T02:38:40.109Z,70.53
2022-07-26T02:39:40.284Z,71.12
2022-07-26T02:40:40.443Z,71.22
2022-07-26T02:41:40.602Z,71.72
2022-07-26T02:42:40.763Z,71.52
2022-07-26T02:43:40.925Z,71.82
2022-07-26T02:44:41.101Z,71.62
2022-07-26T02:45:41.252Z,71.92
2022-07-26T02:46:41.555Z,71.32
2022-07-26T02:47:41.632Z,71.42
2022-07-26T02:48:41.825Z,71.72
2022-07-26T02:49:41.973Z,71.66
2022-07-26T02:50:42.133Z,71.26
2022-07-26T02:51:42.284Z,71.45
2022-07-26T02:52:42.465Z,71.36
2022-07-26T02:53:42.624Z,71.56
2022-07-26T02:54:42.823Z,71.06
2022-07-26T02:55:42.964Z,71.66
2022-07-26T02:56:43.154Z,71.56
2022-07-26T02:57:46.099Z,71.95
2022-07-26T02:58:43.511Z,71.66
2022-07-26T02:59:43.694Z,71.75
2022-07-26T03:00:43.882Z,71.15
2022-07-26T03:01:44.111Z,71.26
2022-07-26T03:02:44.291Z,71.45
2022-07-26T03:03:50.127Z,71.36
2022-07-26T03:04:45.603Z,71.09
2022-07-26T03:05:44.757Z,70.95
2022-07-26T03:06:44.945Z,71.69
2022-07-26T03:07:45.125Z,71.29
2022-07-26T03:08:45.305Z,71.09
2022-07-26T03:09:45.474Z,71.39
2022-07-26T03:10:45.625Z,71.49
2022-07-26T03:11:45.805Z,71.09
2022-07-26T03:12:45.986Z,70.89
2022-07-26T03:13:46.169Z,71.59
2022-07-26T03:14:46.375Z,71.29
2022-07-26T03:15:46.553Z,71.59
2022-07-26T03:16:46.675Z,71.69
2022-07-26T03:17:46.825Z,71.69
2022-07-26T03:18:47.017Z,71.49
2022-07-26T03:19:47.226Z,71.19
2022-07-26T03:20:47.378Z,71.89
2022-07-26T03:21:47.566Z,71.49
2022-07-26T03:22:47.716Z,71.33
2022-07-26T03:23:47.908Z,71.92
2022-07-26T03:24:48.087Z,72.32
2022-07-26T03:25:48.237Z,71.92
2022-07-26T03:26:48.388Z,72.32
2022-07-26T03:27:48.587Z,72.62
2022-07-26T03:28:48.765Z,72.42
2022-07-26T03:29:48.956Z,72.42
2022-07-26T03:30:49.134Z,72.02
2022-07-26T03:31:49.265Z,71.72
2022-07-26T03:32:49.456Z,71.22
2022-07-26T03:33:49.651Z,71.83
2022-07-26T03:34:49.820Z,71.62
2022-07-26T03:35:49.967Z,72.02
2022-07-26T03:36:50.165Z,71.33
2022-07-26T03:37:50.307Z,71.72
2022-07-26T03:38:50.467Z,71.62
2022-07-26T03:39:50.667Z,71.22
2022-07-26T03:40:50.807Z,71.12
2022-07-26T03:41:50.998Z,70.92
2022-07-26T03:42:51.188Z,70.53
2022-07-26T03:43:51.377Z,70.92
2022-07-26T03:44:51.548Z,70.53
2022-07-26T03:45:54.478Z,70.32
2022-07-26T03:46:51.869Z,70.83
2022-07-26T03:47:52.059Z,70.32
2022-07-26T03:48:52.271Z,70.72
2022-07-26T03:49:52.418Z,70.79
2022-07-26T03:50:52.569Z,70.19
2022-07-26T03:51:52.728Z,70.29
2022-07-26T03:52:52.887Z,70.59
2022-07-26T03:53:53.057Z,69.99
2022-07-26T03:54:53.233Z,69.89
2022-07-26T03:55:53.392Z,69.89
2022-07-26T03:56:53.555Z,69.49
2022-07-26T03:57:53.723Z,69.39
2022-07-26T03:58:53.871Z,69.49
2022-07-26T03:59:54.074Z,69.09
2022-07-26T04:00:54.219Z,69.20
2022-07-26T04:01:54.466Z,68.99
2022-07-26T04:02:54.675Z,68.70
2022-07-26T04:03:54.768Z,68.79
2022-07-26T04:04:54.958Z,68.66
2022-07-26T04:05:55.111Z,68.66
2022-07-26T04:06:55.289Z,68.46
2022-07-26T04:07:55.833Z,68.36
2022-07-26T04:08:55.629Z,68.56
2022-07-26T04:09:55.829Z,68.46
2022-07-26T04:10:55.975Z,68.66
2022-07-26T04:11:56.159Z,68.86
2022-07-26T04:12:56.310Z,68.36
2022-07-26T04:13:56.498Z,68.46
2022-07-26T04:14:56.690Z,68.16
2022-07-26T04:15:56.840Z,68.46
2022-07-26T04:16:57.057Z,68.16
2022-07-26T04:17:57.219Z,68.26
2022-07-26T04:18:57.391Z,68.16
2022-07-26T04:19:57.590Z,68.16
2022-07-26T04:20:57.731Z,68.16
2022-07-26T04:21:57.911Z,68.46
2022-07-26T04:22:58.091Z,68.36
2022-07-26T04:23:58.283Z,68.43
2022-07-26T04:24:58.481Z,68.33
2022-07-26T04:25:58.655Z,68.53
2022-07-26T04:26:58.830Z,68.53
2022-07-26T04:27:59.013Z,68.43
2022-07-26T04:28:59.193Z,68.23
2022-07-26T04:29:59.571Z,68.03
2022-07-26T04:30:59.576Z,67.83
2022-07-26T04:31:59.732Z,68.03
2022-07-26T04:32:59.924Z,67.83
2022-07-26T04:34:00.101Z,67.83
2022-07-26T04:35:00.315Z,67.63
2022-07-26T04:36:00.456Z,67.43
2022-07-26T04:37:00.701Z,67.53
2022-07-26T04:38:00.828Z,67.53
2022-07-26T04:39:01.003Z,67.33
2022-07-26T04:40:01.193Z,67.00
2022-07-26T04:41:01.342Z,66.70
2022-07-26T04:42:01.529Z,66.80
2022-07-26T04:43:01.705Z,66.80
2022-07-26T04:44:01.897Z,66.80
2022-07-26T04:45:07.471Z,65.80
2022-07-26T04:46:03.321Z,65.97
2022-07-26T04:47:02.415Z,66.17
2022-07-26T04:48:02.614Z,65.77
2022-07-26T04:49:02.848Z,65.47
2022-07-26T04:50:02.976Z,65.77
2022-07-26T04:51:03.112Z,65.44
2022-07-26T04:52:03.294Z,65.14
2022-07-26T04:53:03.474Z,65.24
2022-07-26T04:54:03.661Z,64.64
2022-07-26T04:55:03.866Z,64.42
2022-07-26T04:56:04.004Z,64.31
2022-07-26T04:57:04.192Z,64.22
2022-07-26T04:58:04.372Z,63.92
2022-07-26T04:59:04.544Z,63.72
2022-07-26T05:00:20.874Z,64.01
2022-07-26T05:01:10.460Z,63.42
2022-07-26T05:02:06.187Z,63.09
2022-07-26T05:03:05.364Z,62.89
2022-07-26T05:04:05.509Z,62.69
2022-07-26T05:05:05.614Z,62.79
2022-07-26T05:06:05.795Z,62.89
2022-07-26T05:07:05.976Z,62.29
2022-07-26T05:08:06.163Z,62.10
2022-07-26T05:09:06.336Z,61.99
2022-07-26T05:10:06.525Z,62.29
2022-07-26T05:11:06.720Z,61.80
2022-07-26T05:12:06.865Z,61.60
2022-07-26T05:13:07.044Z,61.40
2022-07-26T05:14:07.500Z,61.20
2022-07-26T05:15:09.417Z,61.10
2022-07-26T05:16:12.001Z,60.68
2022-07-26T05:17:08.682Z,61.07
2022-07-26T05:18:08.215Z,60.77
2022-07-26T05:19:08.116Z,60.94
2022-07-26T05:20:08.326Z,60.64
2022-07-26T05:21:08.469Z,60.12
2022-07-26T05:22:08.647Z,59.62
2022-07-26T05:23:08.827Z,59.92
2022-07-26T05:24:09.488Z,59.22
2022-07-26T05:25:09.201Z,58.62
2022-07-26T05:26:09.347Z,58.40
2022-07-26T05:27:09.526Z,58.20
2022-07-26T05:28:09.708Z,57.21
2022-07-26T05:29:09.889Z,56.91
2022-07-26T05:30:10.088Z,56.38
2022-07-26T05:31:10.347Z,55.76
2022-07-26T05:32:10.410Z,55.04
2022-07-26T05:33:10.579Z,55.11
2022-07-26T05:34:11.992Z,54.17
2022-07-26T05:35:10.948Z,53.55
2022-07-26T05:36:11.118Z,52.24
2022-07-26T05:37:11.306Z,52.09
2022-07-26T05:38:11.479Z,51.57
2022-07-26T05:39:15.746Z,50.63
2022-07-26T05:40:11.839Z,49.90
2022-07-26T05:41:11.979Z,48.29
2022-07-26T05:42:12.165Z,48.17
2022-07-26T05:43:12.330Z,46.77
2022-07-26T05:44:12.503Z,45.86
2022-07-26T05:45:12.700Z,45.25
2022-07-26T05:46:12.957Z,45.23
2022-07-26T05:47:13.041Z,44.91
2022-07-26T05:48:13.231Z,44.37
2022-07-26T05:49:13.468Z,43.66
2022-07-26T05:50:13.600Z,42.66
2022-07-26T05:51:13.779Z,42.86
2022-07-26T05:52:13.941Z,42.55
2022-07-26T05:53:14.121Z,42.15
2022-07-26T05:54:14.307Z,41.45
2022-07-26T05:55:14.494Z,42.21
2022-07-26T05:56:14.670Z,41.21
2022-07-26T05:57:14.842Z,40.90
2022-07-26T05:58:15.032Z,40.00
2022-07-26T05:59:15.203Z,40.58
2022-07-26T06:00:15.413Z,38.32
2022-07-26T06:01:15.554Z,38.71
2022-07-26T06:02:15.823Z,38.71
2022-07-26T06:03:15.884Z,38.89
2022-07-26T06:04:16.104Z,38.28
2022-07-26T06:05:16.276Z,37.67
2022-07-26T06:06:16.427Z,36.51
2022-07-26T06:07:16.596Z,37.37
2022-07-26T06:08:16.784Z,36.98
2022-07-26T06:09:16.963Z,36.78
2022-07-26T06:10:17.168Z,37.54
2022-07-26T06:11:17.305Z,36.76
2022-07-26T06:12:17.495Z,36.47
2022-07-26T06:13:17.687Z,35.71
2022-07-26T06:14:17.855Z,36.88
2022-07-26T06:15:18.045Z,36.68
2022-07-26T06:16:18.204Z,36.99
2022-07-26T06:17:18.451Z,36.11
2022-07-26T06:18:18.546Z,37.11
2022-07-26T06:19:18.707Z,36.94
2022-07-26T06:20:18.896Z,37.06
2022-07-26T06:21:19.057Z,37.85
2022-07-26T06:22:19.218Z,38.73
2022-07-26T06:23:33.769Z,38.53
2022-07-26T06:24:20.570Z,38.34
2022-07-26T06:25:19.744Z,37.75
2022-07-26T06:26:19.902Z,37.35
2022-07-26T06:27:20.070Z,37.55
2022-07-26T06:28:20.249Z,38.06
2022-07-26T06:29:20.419Z,38.35
2022-07-26T06:30:20.590Z,39.04
2022-07-26T06:31:20.807Z,38.65
2022-07-26T06:32:20.951Z,38.26
2022-07-26T06:33:21.107Z,38.65
2022-07-26T06:34:21.290Z,38.16
2022-07-26T06:35:21.479Z,38.16
2022-07-26T06:36:21.633Z,37.77
2022-07-26T06:37:21.800Z,38.26
2022-07-26T06:38:21.980Z,37.95
2022-07-26T06:39:22.160Z,37.45
2022-07-26T06:40:22.371Z,36.85
2022-07-26T06:41:22.513Z,36.46
2022-07-26T06:42:22.700Z,36.34
2022-07-26T06:43:22.873Z,36.43
2022-07-26T06:44:23.103Z,36.72
2022-07-26T06:45:23.233Z,36.11
2022-07-26T06:46:23.480Z,36.41
2022-07-26T06:47:23.595Z,36.80
2022-07-26T06:48:23.792Z,35.80
2022-07-26T06:49:24.002Z,35.61
2022-07-26T06:50:25.783Z,35.90
2022-07-26T06:51:24.304Z,35.71
2022-07-26T06:52:24.493Z,35.51
2022-07-26T06:53:24.665Z,35.41
2022-07-26T06:54:24.879Z,35.41
2022-07-26T06:55:25.051Z,35.63
2022-07-26T06:56:25.229Z,35.72
2022-07-26T06:57:25.436Z,35.45
2022-07-26T06:58:25.576Z,36.23
2022-07-26T06:59:25.746Z,36.04
2022-07-26T07:00:25.947Z,35.94
2022-07-26T07:01:58.721Z,35.74
2022-07-26T07:02:27.278Z,36.04
2022-07-26T07:03:26.466Z,35.74
2022-07-26T07:04:26.750Z,35.56
2022-07-26T07:05:26.827Z,36.16
2022-07-26T07:06:27.007Z,36.16
2022-07-26T07:07:27.188Z,35.97
2022-07-26T07:08:27.360Z,36.05
2022-07-26T07:09:27.538Z,35.87
2022-07-26T07:10:27.727Z,35.95
2022-07-26T07:11:27.896Z,36.05
2022-07-26T07:12:28.048Z,36.16
2022-07-26T07:13:28.219Z,35.85
2022-07-26T07:14:28.418Z,36.04
2022-07-26T07:15:28.601Z,35.25
2022-07-26T07:16:28.884Z,35.14
2022-07-26T07:17:28.951Z,35.63
2022-07-26T07:18:29.139Z,34.73
2022-07-26T07:19:29.309Z,34.73
2022-07-26T07:20:29.520Z,35.31
2022-07-26T07:21:29.661Z,34.44
2022-07-26T07:22:29.850Z,34.44
2022-07-26T07:23:30.020Z,35.24
2022-07-26T07:24:30.201Z,34.94
2022-07-26T07:25:31.197Z,34.83
2022-07-26T07:26:30.530Z,34.45
2022-07-26T07:27:30.721Z,34.57
2022-07-26T07:28:30.891Z,35.16
2022-07-26T07:29:31.061Z,35.35
2022-07-26T07:30:31.262Z,34.86
2022-07-26T07:31:48.016Z,35.33
2022-07-26T07:32:32.659Z,34.71
2022-07-26T07:33:32.237Z,34.21
2022-07-26T07:34:32.963Z,33.88
2022-07-26T07:35:32.908Z,33.75
2022-07-26T07:36:32.336Z,31.98
2022-07-26T07:37:53.030Z,31.29
2022-07-26T07:38:33.685Z,31.37
2022-07-26T07:39:34.845Z,31.65
2022-07-26T07:40:34.064Z,30.47
2022-07-26T07:41:33.225Z,31.13
2022-07-26T07:42:33.406Z,30.26
2022-07-26T07:43:33.581Z,30.82
2022-07-26T07:44:33.754Z,30.63
2022-07-26T07:45:33.969Z,30.31
2022-07-26T07:46:34.138Z,28.94
2022-07-26T07:47:34.306Z,29.02
2022-07-26T07:48:34.541Z,28.03
2022-07-26T07:49:34.718Z,27.55
2022-07-26T07:50:34.861Z,27.62
2022-07-26T07:51:36.204Z,28.29
2022-07-26T07:52:35.187Z,26.92
2022-07-26T07:53:35.392Z,27.49
2022-07-26T07:54:35.567Z,26.81
2022-07-26T07:55:40.927Z,26.61
2022-07-26T07:56:36.888Z,26.98
2022-07-26T07:57:36.079Z,25.81
2022-07-26T07:58:36.268Z,26.47
2022-07-26T07:59:39.039Z,26.27
2022-07-26T08:00:36.595Z,25.96
2022-07-26T08:01:40.237Z,24.41
2022-07-26T08:02:36.920Z,24.41
2022-07-26T08:03:38.990Z,24.30
2022-07-26T08:04:37.365Z,23.63
2022-07-26T08:05:40.575Z,24.13
2022-07-26T08:06:37.627Z,24.32
2022-07-26T08:07:37.812Z,24.30
2022-07-26T08:08:38.002Z,24.29
2022-07-26T08:09:38.170Z,23.91
2022-07-26T08:10:43.607Z,24.21
2022-07-26T08:11:39.534Z,23.72
2022-07-26T08:12:38.715Z,23.91
2022-07-26T08:13:38.893Z,24.09
2022-07-26T08:14:39.053Z,24.77
2022-07-26T08:15:39.327Z,24.88
2022-07-26T08:16:39.498Z,25.09
2022-07-26T08:17:41.883Z,24.43
2022-07-26T08:18:55.662Z,24.43
2022-07-26T08:19:41.779Z,25.40
2022-07-26T08:20:40.116Z,24.71
2022-07-26T08:21:40.295Z,23.93
2022-07-26T08:22:40.434Z,24.03
2022-07-26T08:23:40.626Z,24.41
2022-07-26T08:24:40.799Z,23.93
2022-07-26T08:25:55.074Z,23.65
2022-07-26T08:26:42.177Z,24.02
2022-07-26T08:27:41.403Z,22.84
2022-07-26T08:28:58.416Z,22.28
2022-07-26T08:29:42.688Z,22.77
2022-07-26T08:30:41.838Z,23.36
2022-07-26T08:31:42.079Z,23.94
2022-07-26T08:32:42.188Z,23.77
2022-07-26T08:33:46.518Z,24.37
2022-07-26T08:34:42.535Z,24.79
2022-07-26T08:35:42.719Z,25.29
2022-07-26T08:37:06.991Z,25.90
2022-07-26T08:37:44.079Z,25.99
2022-07-26T08:38:43.237Z,26.59
2022-07-26T08:39:43.409Z,25.92
2022-07-26T08:40:43.581Z,26.68
2022-07-26T08:41:43.779Z,26.50
2022-07-26T08:42:43.919Z,26.81
2022-07-26T08:43:51.558Z,27.01
2022-07-26T08:44:45.279Z,26.92
2022-07-26T08:45:44.451Z,26.70
2022-07-26T08:46:44.654Z,26.88
2022-07-26T08:48:07.309Z,26.97
2022-07-26T08:48:46.037Z,26.07
2022-07-26T08:49:45.183Z,26.26
2022-07-26T08:50:45.348Z,26.48
2022-07-26T08:51:45.533Z,26.21
2022-07-26T08:52:45.683Z,27.21
2022-07-26T08:53:45.855Z,27.62
2022-07-26T08:54:46.028Z,28.14
2022-07-26T08:56:05.939Z,28.74
2022-07-26T08:56:47.392Z,28.55
2022-07-26T08:57:46.545Z,29.05
2022-07-26T08:58:46.715Z,29.16
2022-07-26T08:59:46.905Z,29.26
2022-07-26T09:00:47.140Z,28.86
2022-07-26T09:01:47.272Z,28.32
2022-07-26T09:02:47.446Z,27.60
2022-07-26T09:03:47.700Z,26.98
2022-07-26T09:04:47.849Z,26.40
2022-07-26T09:05:47.969Z,26.72
2022-07-26T09:06:48.125Z,26.85
2022-07-26T09:07:48.296Z,27.86
2022-07-26T09:08:48.511Z,28.54
2022-07-26T09:09:48.678Z,28.36
2022-07-26T09:10:48.847Z,28.66
2022-07-26T09:11:49.057Z,28.83
2022-07-26T09:12:49.207Z,28.32
2022-07-26T09:13:49.377Z,27.79
2022-07-26T09:14:49.547Z,27.19
2022-07-26T09:15:49.773Z,26.30
2022-07-26T09:16:49.994Z,26.57
2022-07-26T09:17:50.099Z,26.39
2022-07-26T09:18:50.271Z,26.70
2022-07-26T09:19:50.450Z,27.03
2022-07-26T09:20:50.620Z,27.92
2022-07-26T09:21:50.810Z,28.11
2022-07-26T09:22:50.950Z,27.49
2022-07-26T09:23:51.149Z,27.55
2022-07-26T09:24:51.322Z,25.67
2022-07-26T09:25:51.501Z,24.97
2022-07-26T09:26:51.701Z,24.74
2022-07-26T09:27:51.838Z,23.57
2022-07-26T09:28:52.011Z,24.51
2022-07-26T09:29:52.191Z,24.29
2022-07-26T09:30:52.410Z,23.41
2022-07-26T09:31:52.626Z,22.61
2022-07-26T09:32:57.013Z,23.19
2022-07-26T09:33:54.052Z,22.11
2022-07-26T09:34:55.697Z,22.87
2022-07-26T09:35:54.254Z,22.19
2022-07-26T09:36:53.427Z,21.70
2022-07-26T09:37:53.607Z,21.12
2022-07-26T09:38:53.775Z,22.38
2022-07-26T09:39:53.956Z,21.83
2022-07-26T09:40:54.134Z,23.39
2022-07-26T09:42:17.456Z,22.95
2022-07-26T09:42:55.484Z,24.02
2022-07-26T09:43:54.650Z,24.14
2022-07-26T09:44:54.796Z,24.37
2022-07-26T09:45:54.966Z,25.46
2022-07-26T09:46:55.218Z,26.18
2022-07-26T09:47:55.306Z,27.09
2022-07-26T09:49:11.805Z,27.50
2022-07-26T09:49:56.675Z,28.22
2022-07-26T09:50:55.818Z,29.12
2022-07-26T09:51:56.039Z,29.64
2022-07-26T09:52:56.168Z,30.25
2022-07-26T09:53:56.366Z,31.45
2022-07-26T09:54:56.527Z,31.46
2022-07-26T09:55:56.714Z,31.88
2022-07-26T09:56:56.877Z,32.19
2022-07-26T09:57:57.026Z,33.18
2022-07-26T09:58:57.199Z,33.11
2022-07-26T09:59:57.389Z,33.22
2022-07-26T10:01:02.096Z,33.51
2022-07-26T10:01:58.815Z,34.41
2022-07-26T10:02:57.959Z,34.42
2022-07-26T10:03:58.097Z,34.65
2022-07-26T10:04:58.281Z,35.06
2022-07-26T10:05:58.460Z,35.86
2022-07-26T10:06:58.629Z,35.97
2022-07-26T10:07:58.801Z,37.46
2022-07-26T10:08:58.971Z,37.56
2022-07-26T10:09:59.161Z,37.68
2022-07-26T10:10:59.342Z,38.17
2022-07-26T10:11:59.539Z,38.07
2022-07-26T10:12:59.692Z,38.27
2022-07-26T10:13:59.880Z,37.88
2022-07-26T10:15:00.044Z,38.96
2022-07-26T10:16:00.261Z,37.78
2022-07-26T10:17:00.424Z,38.37
2022-07-26T10:18:00.564Z,38.66
2022-07-26T10:19:00.873Z,38.64
2022-07-26T10:20:00.903Z,39.23
2022-07-26T10:21:01.072Z,38.06
2022-07-26T10:22:01.272Z,38.72
2022-07-26T10:23:01.423Z,37.65
2022-07-26T10:24:01.602Z,37.74
2022-07-26T10:25:01.790Z,37.94
2022-07-26T10:26:01.966Z,38.53
2022-07-26T10:27:02.153Z,37.35
2022-07-26T10:28:02.325Z,37.05
2022-07-26T10:29:03.504Z,37.04
2022-07-26T10:30:02.677Z,37.21
2022-07-26T10:31:02.875Z,36.92
2022-07-26T10:32:03.053Z,36.12
2022-07-26T10:33:03.189Z,36.90
2022-07-26T10:34:06.779Z,35.32
2022-07-26T10:35:03.526Z,35.22
2022-07-26T10:36:03.723Z,35.01
2022-07-26T10:37:03.896Z,35.50
2022-07-26T10:38:04.091Z,36.55
2022-07-26T10:39:04.254Z,35.48
2022-07-26T10:40:04.435Z,34.50
2022-07-26T10:41:04.607Z,34.80
2022-07-26T10:42:04.797Z,34.70
2022-07-26T10:43:30.146Z,35.66
2022-07-26T10:44:06.157Z,36.44
2022-07-26T10:45:05.296Z,36.15
2022-07-26T10:46:05.531Z,35.06
2022-07-26T10:47:05.646Z,35.25
2022-07-26T10:48:05.819Z,35.74
2022-07-26T10:49:06.021Z,35.66
2022-07-26T10:50:06.159Z,35.46
2022-07-26T10:51:06.641Z,35.07
2022-07-26T10:52:06.499Z,34.21
2022-07-26T10:53:06.636Z,34.13
2022-07-26T10:54:06.922Z,35.69
2022-07-26T10:55:06.981Z,35.81
2022-07-26T10:56:07.160Z,36.00
2022-07-26T10:57:07.341Z,35.04
2022-07-26T10:58:07.501Z,35.04
2022-07-26T10:59:07.671Z,35.03
2022-07-26T11:00:07.842Z,34.93
2022-07-26T11:01:08.108Z,34.94
2022-07-26T11:02:08.284Z,35.24
2022-07-26T11:03:08.408Z,35.73
2022-07-26T11:04:08.964Z,35.71
2022-07-26T11:05:08.732Z,36.30
2022-07-26T11:06:08.900Z,35.63
2022-07-26T11:07:09.073Z,35.53
2022-07-26T11:08:09.244Z,35.93
2022-07-26T11:09:09.416Z,36.43
2022-07-26T11:10:09.620Z,36.92
2022-07-26T11:11:09.751Z,36.82
2022-07-26T11:12:09.934Z,36.24
2022-07-26T11:13:10.113Z,36.41
2022-07-26T11:14:10.670Z,35.93
2022-07-26T11:15:10.463Z,36.69
2022-07-26T11:16:10.684Z,36.88
2022-07-26T11:17:10.836Z,38.73
2022-07-26T11:18:10.985Z,37.34
2022-07-26T11:19:11.156Z,36.85
2022-07-26T11:20:11.346Z,35.95
2022-07-26T11:21:11.515Z,35.75
2022-07-26T11:22:11.726Z,35.74
2022-07-26T11:23:11.876Z,35.25
2022-07-26T11:24:12.397Z,34.86
2022-07-26T11:25:12.226Z,33.79
2022-07-26T11:26:12.416Z,34.47
2022-07-26T11:27:12.596Z,34.18
2022-07-26T11:28:12.776Z,34.47
2022-07-26T11:29:17.573Z,35.04
2022-07-26T11:30:14.138Z,33.48
2022-07-26T11:31:13.298Z,33.09
2022-07-26T11:32:18.172Z,32.79
2022-07-26T11:33:14.680Z,33.48
2022-07-26T11:34:14.263Z,31.33
2022-07-26T11:35:13.981Z,31.64
2022-07-26T11:36:14.158Z,33.30
2022-07-26T11:37:14.370Z,31.92
2022-07-26T11:38:14.508Z,32.01
2022-07-26T11:39:14.689Z,31.52
2022-07-26T11:40:14.865Z,31.41
2022-07-26T11:41:15.032Z,32.09
2022-07-26T11:42:15.237Z,31.51
2022-07-26T11:43:15.405Z,31.51
2022-07-26T11:44:16.106Z,32.48
2022-07-26T11:45:15.731Z,31.52
2022-07-26T11:46:15.961Z,31.72
2022-07-26T11:47:16.102Z,32.91
2022-07-26T11:48:16.261Z,33.01
2022-07-26T11:49:16.504Z,33.31
2022-07-26T11:50:22.761Z,33.43
2022-07-26T11:51:17.770Z,33.45
2022-07-26T11:52:24.937Z,33.74
2022-07-26T11:53:18.124Z,33.94
2022-07-26T11:54:17.297Z,34.83
2022-07-26T11:55:17.472Z,35.14
2022-07-26T11:56:17.658Z,36.14
2022-07-26T11:57:17.855Z,37.84
2022-07-26T11:58:18.033Z,38.35
2022-07-26T11:59:18.214Z,39.27
2022-07-26T12:00:18.394Z,40.29
2022-07-26T12:01:18.596Z,41.29
2022-07-26T12:02:18.794Z,42.32
2022-07-26T12:03:18.965Z,43.03
2022-07-26T12:04:19.249Z,43.96
2022-07-26T12:05:19.852Z,44.87
2022-07-26T12:06:19.504Z,45.87
2022-07-26T12:07:20.128Z,46.19
2022-07-26T12:08:19.856Z,46.70
2022-07-26T12:09:20.032Z,46.91
2022-07-26T12:10:20.196Z,47.52
2022-07-26T12:11:20.366Z,47.62
2022-07-26T12:12:20.553Z,47.22
2022-07-26T12:13:20.703Z,47.42
2022-07-26T12:14:21.168Z,47.81
2022-07-26T12:15:21.056Z,47.91
2022-07-26T12:16:21.355Z,47.84
2022-07-26T12:17:21.427Z,48.03
2022-07-26T12:18:21.576Z,48.33
2022-07-26T12:19:21.737Z,48.53
2022-07-26T12:20:21.897Z,48.63
2022-07-26T12:21:22.078Z,48.53
2022-07-26T12:22:22.267Z,48.95
2022-07-26T12:23:22.462Z,49.05
2022-07-26T12:24:22.598Z,49.37
2022-07-26T12:25:22.788Z,49.57
2022-07-26T12:26:22.977Z,49.99
2022-07-26T12:27:23.185Z,50.41
2022-07-26T12:28:23.316Z,51.10
2022-07-26T12:29:23.496Z,51.10
2022-07-26T12:30:23.697Z,50.90
2022-07-26T12:31:23.949Z,51.00
2022-07-26T12:32:24.051Z,51.30
2022-07-26T12:33:24.221Z,51.12
2022-07-26T12:34:24.389Z,51.03
2022-07-26T12:35:24.571Z,51.12
2022-07-26T12:36:28.114Z,51.35
2022-07-26T12:37:33.720Z,51.77
2022-07-26T12:38:26.072Z,52.37
2022-07-26T12:39:25.258Z,52.07
2022-07-26T12:40:25.432Z,52.19
2022-07-26T12:41:25.621Z,53.08
2022-07-26T12:42:33.614Z,53.08
2022-07-26T12:43:26.973Z,52.59
2022-07-26T12:44:26.121Z,52.98
2022-07-26T12:45:26.301Z,52.56
2022-07-26T12:46:26.597Z,52.76
2022-07-26T12:47:26.680Z,52.47
2022-07-26T12:48:26.850Z,51.87
2022-07-26T12:49:27.061Z,52.07
2022-07-26T12:50:27.182Z,51.75
2022-07-26T12:51:27.362Z,51.35
2022-07-26T12:52:27.556Z,51.05
2022-07-26T12:53:27.742Z,50.16
2022-07-26T12:54:29.658Z,50.56